Time;durP1;ratioP1;P1;durP2;ratioP2;P2;SDS_P1;SDS_P2;PMS_P1;PMS_P2;Temp;Humidity;BMP_temperature;BMP_pressure;BME280_temperature;BME280_humidity;BME280_pressure;Samples;Min_cycle;Max_cycle;Signal;HPM_P1;HPM_P2
2023/01/20 00:01:47;;;;;;;8.77;5.50;;;-0.70;99.90;;;;;;5105831;28;20030;-58
2023/01/20 00:04:24;;;;;;;7.40;4.65;;;-0.70;99.90;;;;;;5099649;28;20042;-58
2023/01/20 00:06:58;;;;;;;7.78;4.65;;;-0.80;99.90;;;;;;5076787;29;20031;-58
2023/01/20 00:09:29;;;;;;;9.20;4.72;;;-0.80;99.90;;;;;;5121938;28;20560;-58
2023/01/20 00:12:02;;;;;;;6.18;4.47;;;-0.90;99.90;;;;;;5075117;29;20344;-56
2023/01/20 00:14:33;;;;;;;11.07;5.33;;;-0.90;99.90;;;;;;5109729;29;20339;-57
2023/01/20 00:17:04;;;;;;;6.65;4.72;;;-0.90;99.90;;;;;;5094105;29;20267;-58
2023/01/20 00:19:38;;;;;;;7.38;4.43;;;-0.80;99.90;;;;;;5089610;28;20050;-58
2023/01/20 00:22:12;;;;;;;7.88;4.38;;;-0.80;99.90;;;;;;5104596;28;20054;-58
2023/01/20 00:24:43;;;;;;;7.85;4.15;;;-0.90;99.90;;;;;;5106502;29;20037;-58
2023/01/20 00:27:17;;;;;;;10.25;5.05;;;-1.00;99.90;;;;;;5110928;29;20037;-59
2023/01/20 00:29:49;;;;;;;7.32;4.80;;;-1.00;99.90;;;;;;5097128;28;20292;-59
2023/01/20 00:32:20;;;;;;;9.75;5.57;;;-1.00;99.90;;;;;;5110916;28;20697;-58
2023/01/20 00:34:54;;;;;;;13.50;5.57;;;-1.10;99.90;;;;;;5111631;29;20035;-59
2023/01/20 00:37:25;;;;;;;7.20;4.80;;;-1.00;99.90;;;;;;5100339;29;20029;-58
2023/01/20 00:39:56;;;;;;;7.22;5.25;;;-1.10;99.90;;;;;;5092999;29;20050;-58
2023/01/20 00:42:28;;;;;;;8.80;6.22;;;-1.10;99.90;;;;;;5100814;29;20049;-57
2023/01/20 00:45:02;;;;;;;9.63;5.18;;;-1.10;99.90;;;;;;5126029;28;20039;-59
2023/01/20 00:47:35;;;;;;;9.70;5.32;;;-1.10;99.90;;;;;;5110806;29;20045;-60
2023/01/20 00:50:07;;;;;;;13.43;5.80;;;-1.10;99.90;;;;;;5108100;28;20241;-59
2023/01/20 00:52:38;;;;;;;7.50;5.18;;;-1.10;99.90;;;;;;5090910;29;20521;-58
2023/01/20 00:55:09;;;;;;;9.93;5.80;;;-1.10;99.90;;;;;;5092667;29;20039;-59
2023/01/20 00:57:40;;;;;;;8.25;6.00;;;-1.20;99.90;;;;;;5116966;28;20532;-59
2023/01/20 01:00:12;;;;;;;8.68;5.68;;;-1.10;99.90;;;;;;5098641;28;20046;-60
2023/01/20 01:02:46;;;;;;;8.10;5.13;;;-1.10;99.90;;;;;;5268693;23;20054;-59
2023/01/20 01:05:20;;;;;;;;;;;-1.10;99.90;;;;;;5139967;28;20056;-59
2023/01/20 01:07:51;;;;;;;6.63;4.60;;;-1.10;99.90;;;;;;5122373;28;19914;-58
2023/01/20 01:10:22;;;;;;;7.72;4.43;;;-1.10;99.90;;;;;;5134633;28;20060;-59
2023/01/20 01:12:53;;;;;;;10.70;5.75;;;-1.10;99.90;;;;;;5150707;28;20476;-58
2023/01/20 01:15:28;;;;;;;10.63;6.00;;;-1.10;99.90;;;;;;5150367;28;20032;-58
2023/01/20 01:17:59;;;;;;;9.10;5.88;;;-1.20;99.90;;;;;;5149664;28;20346;-58
2023/01/20 01:20:32;;;;;;;7.32;5.05;;;-1.20;99.90;;;;;;5149573;28;20034;-59
2023/01/20 01:23:04;;;;;;;7.50;4.63;;;-1.20;99.90;;;;;;5133282;28;20026;-62
2023/01/20 01:25:42;;;;;;;8.82;4.65;;;-1.20;99.90;;;;;;5130525;28;20431;-59
2023/01/20 01:28:16;;;;;;;10.75;5.95;;;-1.20;99.90;;;;;;5147117;28;20102;-59
2023/01/20 01:30:55;;;;;;;11.68;6.07;;;-1.20;99.90;;;;;;5133315;28;20042;-61
2023/01/20 01:33:29;;;;;;;16.92;5.40;;;-1.20;99.90;;;;;;5132527;28;20488;-58
2023/01/20 01:36:02;;;;;;;8.55;5.00;;;-1.30;99.90;;;;;;5134804;28;20045;-60
2023/01/20 01:38:34;;;;;;;9.43;4.60;;;-1.20;99.90;;;;;;5136765;28;20586;-62
2023/01/20 01:41:08;;;;;;;9.60;5.72;;;-1.20;99.90;;;;;;5153742;28;20022;-59
2023/01/20 01:44:03;;;;;;;8.73;5.32;;;-1.20;99.90;;;;;;5136519;28;20034;-59
2023/01/20 01:46:35;;;;;;;9.50;5.68;;;-1.10;99.90;;;;;;5135816;28;20041;-60
2023/01/20 01:49:12;;;;;;;9.25;5.30;;;-1.10;99.90;;;;;;5136253;28;20041;-59
2023/01/20 01:51:52;;;;;;;8.40;5.27;;;-1.10;99.90;;;;;;5155792;28;20263;-59
2023/01/20 01:54:26;;;;;;;8.95;5.53;;;-1.10;99.90;;;;;;5142814;28;20033;-59
2023/01/20 01:57:02;;;;;;;11.43;5.25;;;-1.10;99.90;;;;;;5132009;28;20041;-59
2023/01/20 01:59:34;;;;;;;8.18;4.95;;;-1.10;99.90;;;;;;5133742;28;20043;-60
2023/01/20 02:02:08;;;;;;;8.23;5.07;;;-1.00;99.90;;;;;;5135570;28;20034;-59
2023/01/20 02:04:42;;;;;;;8.20;4.93;;;-0.90;99.90;;;;;;5147384;28;20056;-58
2023/01/20 02:07:22;;;;;;;7.43;5.30;;;-0.90;99.90;;;;;;5151835;28;20038;-58
2023/01/20 02:09:59;;;;;;;10.88;4.40;;;-0.90;99.90;;;;;;5169093;28;20061;-58
2023/01/20 02:12:33;;;;;;;10.50;6.05;;;-0.90;99.90;;;;;;5153489;28;20102;-60
2023/01/20 02:15:11;;;;;;;6.13;4.65;;;-0.90;99.90;;;;;;5137318;28;20034;-61
2023/01/20 02:17:51;;;;;;;14.88;5.28;;;-0.90;99.90;;;;;;5154632;28;20023;-60
2023/01/20 02:21:17;;;;;;;10.10;5.00;;;-0.90;99.90;;;;;;5162527;28;20033;-60
2023/01/20 02:24:11;;;;;;;7.88;4.90;;;-0.90;99.90;;;;;;5092961;29;20018;-58
2023/01/20 02:26:52;;;;;;;8.20;4.65;;;-0.80;99.90;;;;;;5151723;28;20034;-59
2023/01/20 02:29:41;;;;;;;7.68;5.25;;;-0.80;99.90;;;;;;5149044;28;20082;-57
2023/01/20 02:32:40;;;;;;;7.30;4.57;;;-0.80;99.90;;;;;;5150477;28;20227;-59
2023/01/20 02:35:45;;;;;;;8.50;5.55;;;-0.80;99.90;;;;;;5134938;28;20589;-58
2023/01/20 02:38:28;;;;;;;;;;;-0.80;99.90;;;;;;5154785;28;20026;-60
2023/01/20 02:41:40;;;;;;;7.13;4.28;;;-0.80;99.90;;;;;;5135286;28;19916;-59
2023/01/20 02:44:42;;;;;;;9.10;4.90;;;-0.90;99.90;;;;;;5142346;28;20038;-59
2023/01/20 02:47:22;;;;;;;8.45;4.72;;;-0.90;99.90;;;;;;5100468;28;20030;-60
2023/01/20 02:50:02;;;;;;;7.07;4.85;;;-0.90;99.90;;;;;;5129449;28;20039;-59
2023/01/20 02:52:43;;;;;;;7.88;5.07;;;-1.00;99.90;;;;;;5112097;28;20225;-59
2023/01/20 02:55:27;;;;;;;13.30;4.72;;;-1.00;99.90;;;;;;5130412;28;20049;-58
2023/01/20 02:58:07;;;;;;;8.85;5.10;;;-1.00;99.90;;;;;;5128044;28;20035;-59
2023/01/20 03:00:43;;;;;;;6.72;4.80;;;-1.10;99.90;;;;;;5110660;28;20038;-59
2023/01/20 03:03:20;;;;;;;8.70;4.85;;;-1.10;99.90;;;;;;5123895;28;20030;-59
2023/01/20 03:06:00;;;;;;;10.20;5.25;;;-1.20;99.90;;;;;;5102345;28;20730;-59
2023/01/20 03:08:37;;;;;;;5.57;3.95;;;-1.20;99.90;;;;;;5128710;28;20039;-58
2023/01/20 03:11:17;;;;;;;7.60;4.85;;;-1.20;99.90;;;;;;5113285;28;20041;-58
2023/01/20 03:13:51;;;;;;;7.28;4.60;;;-1.20;99.90;;;;;;5096849;28;20049;-60
2023/01/20 03:16:28;;;;;;;8.77;4.03;;;-1.20;99.90;;;;;;5129036;28;20046;-59
2023/01/20 03:18:59;;;;;;;;;;;-1.20;99.90;;;;;;5147458;28;20038;-59
2023/01/20 03:21:35;;;;;;;7.80;4.53;;;-1.10;99.90;;;;;;5151550;28;19908;-59
2023/01/20 03:24:07;;;;;;;7.90;3.95;;;-1.00;99.90;;;;;;5152589;28;20034;-59
2023/01/20 03:26:38;;;;;;;7.53;4.70;;;-1.00;99.90;;;;;;5151318;28;20030;-57
2023/01/20 03:29:14;;;;;;;7.47;4.63;;;-1.00;99.90;;;;;;5150788;28;20476;-58
2023/01/20 03:31:53;;;;;;;7.32;4.50;;;-1.00;99.90;;;;;;5147988;28;20030;-59
2023/01/20 03:34:28;;;;;;;10.20;5.00;;;-1.00;99.90;;;;;;5150930;28;20220;-59
2023/01/20 03:37:03;;;;;;;9.00;5.53;;;-1.00;99.90;;;;;;5150518;28;20341;-58
2023/01/20 03:39:38;;;;;;;8.77;4.80;;;-1.10;99.90;;;;;;5150031;28;20326;-59
2023/01/20 03:42:29;;;;;;;9.48;4.60;;;-1.00;99.90;;;;;;5133888;28;20030;-60
2023/01/20 03:45:13;;;;;;;8.25;5.75;;;-1.00;99.90;;;;;;5133310;28;20042;-59
2023/01/20 03:48:08;;;;;;;6.53;5.03;;;-1.10;99.90;;;;;;5148198;28;20044;-59
2023/01/20 03:51:09;;;;;;;9.30;5.47;;;-1.10;99.90;;;;;;5155069;28;20038;-59
2023/01/20 03:54:01;;;;;;;8.52;4.97;;;-1.20;99.90;;;;;;5167894;28;20030;-60
2023/01/20 03:56:41;;;;;;;5.93;4.80;;;-1.20;99.90;;;;;;5134658;28;20118;-60
2023/01/20 03:59:14;;;;;;;10.93;4.90;;;-1.20;99.90;;;;;;5149226;28;20030;-60
2023/01/20 04:01:47;;;;;;;7.50;5.23;;;-1.20;99.90;;;;;;5127583;28;20042;-61
2023/01/20 04:04:21;;;;;;;6.65;4.57;;;-1.20;99.90;;;;;;5140362;28;20041;-60
2023/01/20 04:07:01;;;;;;;11.15;5.85;;;-1.20;99.90;;;;;;5150791;28;20399;-59
2023/01/20 04:09:40;;;;;;;6.78;4.90;;;-1.20;99.90;;;;;;5150793;28;20231;-61
2023/01/20 04:12:13;;;;;;;6.68;5.05;;;-1.20;99.90;;;;;;5131017;28;20594;-60
2023/01/20 04:14:44;;;;;;;10.05;5.05;;;-1.20;99.90;;;;;;5131343;28;20035;-61
2023/01/20 04:17:16;;;;;;;8.23;4.30;;;-1.20;99.90;;;;;;5148544;28;20030;-60
2023/01/20 04:19:51;;;;;;;6.27;4.47;;;-1.20;99.90;;;;;;5151680;28;20030;-61
2023/01/20 04:22:59;;;;;;;7.72;5.20;;;-1.30;99.90;;;;;;5148073;28;20069;-66
2023/01/20 04:25:31;;;;;;;9.02;5.07;;;-1.20;99.90;;;;;;5145024;28;20367;-61
2023/01/20 04:28:05;;;;;;;9.38;5.20;;;-1.20;99.90;;;;;;5142846;28;20061;-61
2023/01/20 04:30:36;;;;;;;6.78;5.40;;;-1.30;99.90;;;;;;5141953;28;20038;-60
2023/01/20 04:33:08;;;;;;;6.28;4.13;;;-1.30;99.90;;;;;;5148180;28;20334;-60
2023/01/20 04:35:39;;;;;;;10.88;5.55;;;-1.20;99.90;;;;;;5134122;28;20065;-60
2023/01/20 04:38:10;;;;;;;7.78;5.38;;;-1.20;99.90;;;;;;5113788;28;20057;-65
2023/01/20 04:40:42;;;;;;;8.95;6.00;;;-1.20;99.90;;;;;;5162968;28;20034;-60
2023/01/20 04:43:14;;;;;;;8.60;4.93;;;-1.20;99.90;;;;;;5152722;28;20499;-62
2023/01/20 04:45:45;;;;;;;8.98;5.28;;;-1.20;99.90;;;;;;5138033;28;20068;-60
2023/01/20 04:48:16;;;;;;;9.32;5.03;;;-1.20;99.90;;;;;;5148635;28;20034;-60
2023/01/20 04:50:50;;;;;;;8.77;6.20;;;-1.20;99.90;;;;;;5117642;28;20052;-61
2023/01/20 04:53:24;;;;;;;8.32;5.20;;;-1.20;99.90;;;;;;5132429;28;20034;-60
2023/01/20 04:55:58;;;;;;;6.82;4.07;;;-1.20;99.90;;;;;;5147988;28;20038;-60
2023/01/20 04:58:29;;;;;;;8.77;5.43;;;-1.20;99.90;;;;;;5149423;28;20023;-59
2023/01/20 05:01:01;;;;;;;8.57;4.93;;;-1.20;99.90;;;;;;5133324;28;20042;-60
2023/01/20 05:03:35;;;;;;;9.80;5.68;;;-1.10;99.90;;;;;;5148654;28;20042;-61
2023/01/20 05:06:09;;;;;;;11.65;5.68;;;-1.10;99.90;;;;;;5139452;28;20345;-61
2023/01/20 05:08:40;;;;;;;8.35;4.82;;;-1.20;99.90;;;;;;5145947;28;20026;-61
2023/01/20 05:11:12;;;;;;;13.18;5.25;;;-1.20;99.90;;;;;;5149065;28;20274;-61
2023/01/20 05:13:43;;;;;;;8.05;4.97;;;-1.20;99.90;;;;;;5147230;28;20045;-61
2023/01/20 05:16:22;;;;;;;9.27;5.90;;;-1.10;99.90;;;;;;5149298;28;20030;-60
2023/01/20 05:18:54;;;;;;;12.20;5.70;;;-1.20;99.90;;;;;;5149881;28;20030;-60
2023/01/20 05:21:25;;;;;;;14.68;6.25;;;-1.10;99.90;;;;;;5144810;28;20032;-60
2023/01/20 05:23:59;;;;;;;11.07;5.60;;;-1.10;99.90;;;;;;5149768;28;20030;-60
2023/01/20 05:26:31;;;;;;;10.35;6.45;;;-1.10;99.90;;;;;;5149082;28;20038;-62
2023/01/20 05:29:08;;;;;;;13.80;6.57;;;-1.10;99.90;;;;;;5149668;28;20037;-60
2023/01/20 05:31:42;;;;;;;9.23;5.57;;;-1.10;99.90;;;;;;5161965;28;20046;-60
2023/01/20 05:34:15;;;;;;;11.98;6.10;;;-1.10;99.90;;;;;;5145757;28;20041;-62
2023/01/20 05:36:53;;;;;;;9.45;5.47;;;-1.10;99.90;;;;;;5146850;28;20061;-61
2023/01/20 05:39:27;;;;;;;6.93;4.88;;;-1.10;99.90;;;;;;5131172;28;20062;-61
2023/01/20 05:41:59;;;;;;;11.13;5.10;;;-1.00;99.90;;;;;;5149641;28;20014;-60
2023/01/20 05:44:30;;;;;;;10.93;6.20;;;-1.00;99.90;;;;;;5146565;28;20038;-61
2023/01/20 05:47:04;;;;;;;9.50;6.15;;;-1.00;99.90;;;;;;5146172;28;20029;-60
2023/01/20 05:49:39;;;;;;;9.68;5.50;;;-1.00;99.90;;;;;;5126240;28;20278;-60
2023/01/20 05:52:15;;;;;;;9.40;6.00;;;-1.00;99.90;;;;;;5149170;28;20045;-61
2023/01/20 05:54:46;;;;;;;11.75;5.90;;;-1.00;99.90;;;;;;5154596;28;20495;-62
2023/01/20 05:57:17;;;;;;;9.57;5.82;;;-1.00;99.90;;;;;;5151429;28;20030;-61
2023/01/20 05:59:54;;;;;;;10.73;6.00;;;-0.90;99.90;;;;;;5148227;28;20040;-61
2023/01/20 06:02:28;;;;;;;10.32;5.93;;;-1.00;99.90;;;;;;5152597;28;20045;-61
2023/01/20 06:05:02;;;;;;;10.35;5.90;;;-1.00;99.90;;;;;;5150021;28;20053;-61
2023/01/20 06:07:33;;;;;;;11.75;5.60;;;-0.90;99.90;;;;;;5149863;28;20030;-60
2023/01/20 06:10:04;;;;;;;9.80;5.60;;;-1.00;99.90;;;;;;5146919;28;20053;-60
2023/01/20 06:12:36;;;;;;;9.20;6.30;;;-1.00;99.90;;;;;;5128177;28;20579;-61
2023/01/20 06:15:08;;;;;;;9.68;5.20;;;-1.00;99.90;;;;;;5150025;28;20030;-61
2023/01/20 06:17:39;;;;;;;12.07;5.95;;;-1.00;99.90;;;;;;5134835;28;20030;-61
2023/01/20 06:20:13;;;;;;;10.27;6.07;;;-1.10;99.90;;;;;;5148252;28;20040;-59
2023/01/20 06:22:48;;;;;;;12.57;5.88;;;-1.10;99.90;;;;;;5152546;28;20048;-61
2023/01/20 06:25:22;;;;;;;8.45;5.38;;;-1.10;99.90;;;;;;5160706;28;20029;-64
2023/01/20 06:27:53;;;;;;;9.10;5.10;;;-1.10;99.90;;;;;;5150926;28;20045;-60
2023/01/20 06:30:27;;;;;;;12.13;6.40;;;-1.00;99.90;;;;;;5153453;28;20034;-68
2023/01/20 06:33:01;;;;;;;10.43;5.75;;;-1.00;99.90;;;;;;5137519;28;20037;-61
2023/01/20 06:35:33;;;;;;;11.50;6.10;;;-1.00;99.90;;;;;;5172481;28;20038;-62
2023/01/20 06:38:04;;;;;;;8.68;5.65;;;-1.00;99.90;;;;;;5156576;28;20038;-60
2023/01/20 06:40:35;;;;;;;10.27;5.55;;;-0.90;99.90;;;;;;5134930;28;20097;-60
2023/01/20 06:43:09;;;;;;;10.43;5.15;;;-0.90;99.90;;;;;;5133565;28;20041;-61
2023/01/20 06:45:40;;;;;;;8.20;5.88;;;-0.90;99.90;;;;;;5148686;28;20041;-59
2023/01/20 06:48:11;;;;;;;10.95;6.28;;;-0.90;99.90;;;;;;5150598;28;20434;-60
2023/01/20 06:50:45;;;;;;;7.22;5.28;;;-0.90;99.90;;;;;;5148631;28;20057;-60
2023/01/20 06:53:22;;;;;;;8.30;5.40;;;-0.90;99.90;;;;;;5124032;28;20129;-60
2023/01/20 06:55:59;;;;;;;11.40;5.68;;;-0.90;99.90;;;;;;5132298;28;20038;-59
2023/01/20 06:58:32;;;;;;;10.32;5.25;;;-0.80;99.90;;;;;;5125305;28;20042;-60
2023/01/20 07:01:07;;;;;;;8.38;5.35;;;-0.80;99.90;;;;;;5163067;28;20030;-60
2023/01/20 07:03:43;;;;;;;11.80;5.07;;;-0.80;99.90;;;;;;5132690;28;20060;-60
2023/01/20 07:06:37;;;;;;;7.68;4.93;;;-0.80;99.90;;;;;;5126294;28;20046;-59
2023/01/20 07:09:12;;;;;;;10.93;4.85;;;-0.80;99.90;;;;;;5149699;28;20240;-58
2023/01/20 07:11:43;;;;;;;7.00;5.13;;;-0.70;99.90;;;;;;5171156;28;20072;-60
2023/01/20 07:14:17;;;;;;;9.77;5.70;;;-0.70;99.90;;;;;;5141693;28;20048;-61
2023/01/20 07:16:50;;;;;;;8.35;5.07;;;-0.60;99.90;;;;;;5133785;28;20488;-60
2023/01/20 07:19:29;;;;;;;8.82;5.20;;;-0.60;99.90;;;;;;5147301;28;20028;-60
2023/01/20 07:22:05;;;;;;;9.50;4.88;;;-0.60;99.90;;;;;;5132713;28;20042;-58
2023/01/20 07:24:39;;;;;;;7.80;5.38;;;-0.60;99.90;;;;;;5148562;28;20034;-58
2023/01/20 07:27:10;;;;;;;8.13;4.97;;;-0.60;99.90;;;;;;5149364;28;20034;-59
2023/01/20 07:29:44;;;;;;;7.88;3.90;;;-0.60;99.90;;;;;;5131049;28;20038;-60
2023/01/20 07:32:19;;;;;;;8.07;5.00;;;-0.60;99.90;;;;;;5142316;28;20038;-60
2023/01/20 07:34:50;;;;;;;6.22;4.15;;;-0.50;99.90;;;;;;5148582;28;20036;-59
2023/01/20 07:37:23;;;;;;;10.13;5.60;;;-0.60;99.90;;;;;;5148173;28;20026;-59
2023/01/20 07:39:55;;;;;;;7.55;4.78;;;-0.60;99.90;;;;;;5149569;28;20040;-60
2023/01/20 07:42:28;;;;;;;10.45;5.38;;;-0.60;99.90;;;;;;5144637;28;20040;-59
2023/01/20 07:45:05;;;;;;;8.90;5.13;;;-0.60;99.90;;;;;;5140773;28;20027;-59
2023/01/20 07:47:38;;;;;;;6.35;4.15;;;-0.60;99.90;;;;;;5148843;28;20105;-59
2023/01/20 07:50:10;;;;;;;8.25;4.90;;;-0.60;99.90;;;;;;5149492;28;20218;-59
2023/01/20 07:52:42;;;;;;;9.20;5.07;;;-0.60;99.90;;;;;;5147435;28;20036;-60
2023/01/20 07:55:13;;;;;;;7.90;4.28;;;-0.50;99.90;;;;;;5149968;28;20203;-59
2023/01/20 07:57:44;;;;;;;10.00;4.45;;;-0.50;99.90;;;;;;5143589;28;20045;-59
2023/01/20 08:00:18;;;;;;;8.48;5.63;;;-0.50;99.90;;;;;;5150063;28;20025;-59
2023/01/20 08:02:49;;;;;;;8.80;5.35;;;-0.40;99.90;;;;;;5152161;28;20393;-59
2023/01/20 08:05:22;;;;;;;9.80;5.40;;;-0.40;99.90;;;;;;5125280;28;20037;-59
2023/01/20 08:07:54;;;;;;;10.77;5.50;;;-0.30;99.90;;;;;;5129897;28;20037;-61
2023/01/20 08:10:26;;;;;;;9.13;5.00;;;-0.30;99.90;;;;;;5146824;28;20702;-60
2023/01/20 08:12:58;;;;;;;8.13;5.60;;;-0.30;99.90;;;;;;5131957;28;20037;-59
2023/01/20 08:15:32;;;;;;;10.50;5.22;;;-0.20;99.90;;;;;;5147071;28;20037;-62
2023/01/20 08:18:05;;;;;;;9.70;5.30;;;-0.10;99.90;;;;;;5134600;28;20036;-60
2023/01/20 08:20:40;;;;;;;9.68;5.80;;;-0.10;99.90;;;;;;5148169;28;20340;-58
2023/01/20 08:23:14;;;;;;;13.68;6.00;;;0.10;99.90;;;;;;5131731;28;20036;-59
2023/01/20 08:25:47;;;;;;;7.60;4.95;;;0.10;99.90;;;;;;5148417;28;20042;-59
2023/01/20 08:28:19;;;;;;;16.10;5.63;;;0.20;99.90;;;;;;5163402;28;20037;-59
2023/01/20 08:30:50;;;;;;;8.80;5.10;;;0.20;99.90;;;;;;5125936;28;20358;-60
2023/01/20 08:33:21;;;;;;;7.53;5.03;;;0.20;99.90;;;;;;5139304;28;20192;-60
2023/01/20 08:35:54;;;;;;;8.55;5.22;;;0.30;99.90;;;;;;5146516;28;20034;-61
2023/01/20 08:38:25;;;;;;;7.40;5.07;;;0.40;99.90;;;;;;5143284;28;20052;-64
2023/01/20 08:40:59;;;;;;;8.65;4.57;;;0.40;99.90;;;;;;5130718;28;20038;-60
2023/01/20 08:43:36;;;;;;;6.53;4.25;;;0.40;99.90;;;;;;5148426;28;20044;-60
2023/01/20 08:46:13;;;;;;;8.70;5.13;;;0.40;99.90;;;;;;5147012;28;20030;-64
2023/01/20 08:48:46;;;;;;;6.53;4.30;;;0.50;99.90;;;;;;5129061;28;20042;-62
2023/01/20 08:51:26;;;;;;;8.57;5.40;;;0.60;99.90;;;;;;5126461;28;20216;-60
2023/01/20 08:54:04;;;;;;;14.70;4.85;;;0.60;99.90;;;;;;5146174;28;20372;-60
2023/01/20 08:56:36;;;;;;;9.52;5.07;;;0.70;99.90;;;;;;5146932;28;20027;-60
2023/01/20 08:59:10;;;;;;;9.65;5.10;;;0.70;99.90;;;;;;5135087;28;20251;-61
2023/01/20 09:01:44;;;;;;;;;;;0.80;99.90;;;;;;5139840;28;20250;-60
2023/01/20 09:04:15;;;;;;;8.17;5.40;;;0.80;99.90;;;;;;5115427;28;19920;-62
2023/01/20 09:06:54;;;;;;;6.38;4.85;;;0.90;99.90;;;;;;5154804;28;20032;-61
2023/01/20 09:09:30;;;;;;;7.68;5.13;;;0.90;99.90;;;;;;5146868;28;20044;-60
2023/01/20 09:12:02;;;;;;;9.05;4.90;;;0.90;99.90;;;;;;5140288;28;20049;-62
2023/01/20 09:14:36;;;;;;;7.97;5.35;;;1.00;99.90;;;;;;5146412;28;20026;-62
2023/01/20 09:17:08;;;;;;;8.65;4.85;;;1.00;99.90;;;;;;5144830;28;20236;-62
2023/01/20 09:19:41;;;;;;;8.65;5.50;;;0.90;99.90;;;;;;5141941;28;20042;-61
2023/01/20 09:22:12;;;;;;;6.72;4.63;;;0.90;99.90;;;;;;5145114;28;20068;-61
2023/01/20 09:24:46;;;;;;;10.90;5.20;;;1.20;99.90;;;;;;5143040;28;20327;-61
2023/01/20 09:27:20;;;;;;;9.55;5.10;;;1.40;99.90;;;;;;5146577;28;20022;-62
2023/01/20 09:29:54;;;;;;;8.53;5.30;;;1.40;99.90;;;;;;5142941;28;20030;-61
2023/01/20 09:32:27;;;;;;;11.60;5.20;;;1.30;99.90;;;;;;5145189;28;20053;-61
2023/01/20 09:34:58;;;;;;;7.82;4.72;;;1.40;99.90;;;;;;5159768;28;20038;-61
2023/01/20 09:46:18;;;;;;;6.38;4.40;;;1.40;99.90;;;;;;5146849;28;20022;-61
2023/01/20 09:55:03;;;;;;;5.28;4.30;;;1.50;99.90;;;;;;5137037;28;20342;-61
2023/01/20 09:57:39;;;;;;;8.15;4.90;;;1.70;99.90;;;;;;5146003;28;20031;-61
2023/01/20 10:00:21;;;;;;;9.02;5.25;;;1.70;99.90;;;;;;5152029;28;20026;-61
2023/01/20 10:03:01;;;;;;;7.00;4.43;;;1.70;99.90;;;;;;5145292;28;20060;-61
2023/01/20 10:05:40;;;;;;;8.50;4.60;;;1.80;99.90;;;;;;5131685;28;20274;-61
2023/01/20 10:08:38;;;;;;;7.55;4.50;;;1.80;99.90;;;;;;5125203;28;20034;-60
2023/01/20 10:11:13;;;;;;;5.00;3.75;;;1.60;99.90;;;;;;5150341;28;20425;-60
2023/01/20 10:14:23;;;;;;;7.57;4.57;;;1.70;99.90;;;;;;5146439;28;20423;-60
2023/01/20 10:17:21;;;;;;;7.43;4.05;;;1.70;99.90;;;;;;5135119;28;20050;-61
2023/01/20 10:20:06;;;;;;;7.75;4.15;;;1.90;99.90;;;;;;5135276;28;20154;-60
2023/01/20 10:23:05;;;;;;;9.32;4.80;;;1.70;99.90;;;;;;5094802;28;20060;-60
2023/01/20 10:25:57;;;;;;;8.50;4.85;;;1.80;99.90;;;;;;5145524;28;20224;-60
2023/01/20 10:28:38;;;;;;;7.45;4.40;;;1.90;99.90;;;;;;5127695;28;20126;-61
2023/01/20 10:31:14;;;;;;;7.03;4.10;;;2.20;99.90;;;;;;5130932;28;20050;-61
2023/01/20 10:33:45;;;;;;;7.40;4.22;;;2.10;99.90;;;;;;5142702;28;20036;-60
2023/01/20 10:36:29;;;;;;;6.22;4.20;;;1.90;99.90;;;;;;5122166;28;20034;-60
2023/01/20 10:39:09;;;;;;;6.93;4.00;;;1.90;99.90;;;;;;5147958;28;20034;-62
2023/01/20 10:41:49;;;;;;;6.28;4.15;;;1.90;99.90;;;;;;5154789;28;20671;-63
2023/01/20 10:44:23;;;;;;;6.03;3.72;;;1.80;99.90;;;;;;5144345;28;20205;-61
2023/01/20 10:47:16;;;;;;;9.85;4.75;;;1.90;99.90;;;;;;5124652;28;20038;-62
2023/01/20 10:50:10;;;;;;;10.35;4.88;;;1.80;99.90;;;;;;5143018;28;20034;-63
2023/01/20 10:53:06;;;;;;;6.43;4.10;;;1.80;99.90;;;;;;5139710;28;20451;-62
2023/01/20 10:55:43;;;;;;;6.70;4.30;;;1.80;99.90;;;;;;5110231;28;20049;-62
2023/01/20 10:58:32;;;;;;;6.97;4.50;;;2.00;99.90;;;;;;5154776;28;20036;-63
2023/01/20 11:01:08;;;;;;;6.82;3.88;;;2.20;99.90;;;;;;5150096;28;20034;-63
2023/01/20 11:03:43;;;;;;;6.68;4.00;;;2.40;99.90;;;;;;5142748;28;20072;-63
2023/01/20 11:06:20;;;;;;;8.25;4.35;;;2.70;99.90;;;;;;5147761;28;20049;-63
2023/01/20 11:08:52;;;;;;;7.18;4.50;;;2.50;99.90;;;;;;5130498;28;20045;-64
2023/01/20 11:11:25;;;;;;;6.28;4.00;;;2.40;99.90;;;;;;5142008;28;20128;-63
2023/01/20 11:13:58;;;;;;;7.80;4.57;;;2.60;99.90;;;;;;5125067;28;20049;-62
2023/01/20 11:16:29;;;;;;;10.60;4.17;;;2.70;99.90;;;;;;5149401;28;20030;-63
2023/01/20 11:19:06;;;;;;;8.10;2.90;;;2.50;99.90;;;;;;5146212;28;20218;-64
2023/01/20 11:21:39;;;;;;;6.32;3.72;;;2.30;99.90;;;;;;5147653;28;20060;-63
2023/01/20 11:24:42;;;;;;;5.72;3.80;;;2.30;99.90;;;;;;5132401;28;20031;-64
2023/01/20 11:27:19;;;;;;;5.75;3.95;;;2.40;99.90;;;;;;5148608;28;20014;-62
2023/01/20 11:29:56;;;;;;;5.50;4.30;;;2.10;99.90;;;;;;5162361;28;20331;-63
2023/01/20 11:32:30;;;;;;;8.77;4.40;;;2.20;99.90;;;;;;5143521;28;20050;-63
2023/01/20 11:35:18;;;;;;;6.22;3.45;;;2.30;99.90;;;;;;5144755;28;20034;-64
2023/01/20 11:37:50;;;;;;;5.80;4.53;;;2.20;99.90;;;;;;5146035;28;20367;-64
2023/01/20 11:40:26;;;;;;;6.72;5.35;;;2.20;99.90;;;;;;5127173;28;20036;-64
2023/01/20 11:42:57;;;;;;;6.10;3.88;;;2.40;99.90;;;;;;5163241;28;20042;-63
2023/01/20 11:45:33;;;;;;;6.20;4.53;;;2.60;99.90;;;;;;5148273;28;20018;-64
2023/01/20 11:48:04;;;;;;;6.63;4.13;;;2.80;99.90;;;;;;5147942;28;20041;-64
2023/01/20 11:50:49;;;;;;;4.85;3.45;;;2.90;99.90;;;;;;5132401;28;20353;-63
2023/01/20 11:53:26;;;;;;;6.38;3.83;;;3.10;99.90;;;;;;5148520;28;20042;-63
2023/01/20 11:56:11;;;;;;;9.10;4.32;;;3.00;99.90;;;;;;5150284;28;20225;-62
2023/01/20 11:58:54;;;;;;;8.32;4.25;;;2.90;99.90;;;;;;5149696;28;20049;-63
2023/01/20 12:01:30;;;;;;;8.57;5.30;;;3.00;99.90;;;;;;5145180;28;20303;-62
2023/01/20 12:04:30;;;;;;;7.95;4.38;;;2.90;99.90;;;;;;5131519;28;20076;-63
2023/01/20 12:07:19;;;;;;;7.00;4.63;;;2.80;99.90;;;;;;5129408;28;20387;-62
2023/01/20 12:10:01;;;;;;;8.48;4.53;;;2.60;99.90;;;;;;5138346;28;20065;-63
2023/01/20 12:12:33;;;;;;;7.30;4.60;;;2.50;99.90;;;;;;5160072;28;20060;-64
2023/01/20 12:15:22;;;;;;;5.63;4.20;;;2.30;99.90;;;;;;5131341;28;20342;-63
2023/01/20 12:18:02;;;;;;;8.35;4.47;;;2.50;99.90;;;;;;5147443;28;20159;-62
2023/01/20 12:20:45;;;;;;;8.80;5.40;;;2.30;99.90;;;;;;5146459;28;20030;-64
2023/01/20 12:23:44;;;;;;;6.90;4.63;;;2.50;99.90;;;;;;5145618;28;20038;-64
2023/01/20 12:26:18;;;;;;;6.35;4.15;;;2.70;99.90;;;;;;5129404;28;20233;-63
2023/01/20 12:29:19;;;;;;;9.38;5.07;;;2.40;99.90;;;;;;5148198;28;20027;-63
2023/01/20 12:31:53;;;;;;;8.57;5.10;;;2.40;99.90;;;;;;5149108;28;20057;-63
2023/01/20 12:34:30;;;;;;;6.80;5.03;;;2.20;99.90;;;;;;5150852;28;20022;-62
2023/01/20 12:37:12;;;;;;;7.35;5.00;;;2.20;99.90;;;;;;5166457;28;20500;-63
2023/01/20 12:40:04;;;;;;;6.13;4.68;;;2.30;99.90;;;;;;5149152;28;20046;-63
2023/01/20 12:43:09;;;;;;;9.35;5.00;;;2.30;99.90;;;;;;5146807;28;20390;-63
2023/01/20 12:45:54;;;;;;;7.47;5.13;;;2.30;99.90;;;;;;5146909;28;20057;-63
2023/01/20 12:48:50;;;;;;;10.23;4.00;;;2.30;99.90;;;;;;5147208;28;20338;-64
2023/01/20 12:51:55;;;;;;;12.30;4.70;;;2.20;99.90;;;;;;5145195;28;20234;-62
2023/01/20 12:54:47;;;;;;;10.07;5.55;;;2.20;99.90;;;;;;5145967;28;20026;-62
2023/01/20 12:57:42;;;;;;;9.73;5.80;;;2.20;99.90;;;;;;5146662;28;20038;-64
2023/01/20 13:00:46;;;;;;;7.93;4.85;;;2.20;99.90;;;;;;5126415;28;20349;-63
2023/01/20 13:03:26;;;;;;;11.02;6.20;;;2.20;99.90;;;;;;5135279;28;20046;-64
2023/01/20 13:06:27;;;;;;;8.18;6.30;;;2.00;99.90;;;;;;5126654;28;20050;-62
2023/01/20 13:09:29;;;;;;;11.27;6.20;;;1.90;99.90;;;;;;5124822;28;20034;-63
2023/01/20 13:12:16;;;;;;;7.63;5.95;;;2.00;99.90;;;;;;5136325;28;20439;-63
2023/01/20 13:14:57;;;;;;;11.27;7.25;;;2.00;99.90;;;;;;5146530;28;20036;-62
2023/01/20 13:17:34;;;;;;;11.45;6.25;;;2.00;99.90;;;;;;5138091;28;20038;-63
2023/01/20 13:20:22;;;;;;;12.55;6.88;;;1.90;99.90;;;;;;5130942;28;20037;-63
2023/01/20 13:23:01;;;;;;;11.77;7.03;;;1.90;99.90;;;;;;5140592;28;20242;-63
2023/01/20 13:25:35;;;;;;;11.18;6.15;;;2.00;99.90;;;;;;5145510;28;20050;-64
2023/01/20 13:28:19;;;;;;;9.90;6.10;;;2.00;99.90;;;;;;5147814;28;20394;-63
2023/01/20 13:30:52;;;;;;;;;;;1.90;99.90;;;;;;5146929;28;20034;-64
2023/01/20 13:33:38;;;;;;;10.70;6.13;;;1.80;99.90;;;;;;5147606;28;19916;-62
2023/01/20 13:36:20;;;;;;;11.68;6.97;;;1.80;99.90;;;;;;5145549;28;20042;-63
2023/01/20 13:39:30;;;;;;;9.60;6.28;;;1.90;99.90;;;;;;5144667;28;20389;-63
2023/01/20 13:42:21;;;;;;;10.48;6.57;;;1.80;99.90;;;;;;5161393;28;20453;-63
2023/01/20 13:45:11;;;;;;;10.93;6.68;;;1.90;99.90;;;;;;5131571;28;20281;-62
2023/01/20 13:47:58;;;;;;;16.90;8.23;;;1.80;99.90;;;;;;5122184;28;20320;-63
2023/01/20 13:50:46;;;;;;;10.43;7.07;;;1.90;99.90;;;;;;5135596;28;20034;-63
2023/01/20 13:53:20;;;;;;;9.65;6.82;;;1.90;99.90;;;;;;5133421;28;20566;-64
2023/01/20 13:56:02;;;;;;;14.35;8.55;;;1.80;99.90;;;;;;5149298;28;20326;-64
2023/01/20 13:58:34;;;;;;;11.02;6.93;;;1.80;99.90;;;;;;5130983;28;20273;-63
2023/01/20 14:01:12;;;;;;;12.88;7.55;;;1.80;99.90;;;;;;5126769;28;20034;-63